Time;durP1;ratioP1;P1;durP2;ratioP2;P2;SDS_P1;SDS_P2;PMS_P1;PMS_P2;Temp;Humidity;BMP_temperature;BMP_pressure;BME280_temperature;BME280_humidity;BME280_pressure;Samples;Min_cycle;Max_cycle;Signal;HPM_P1;HPM_P2
2023/11/04 00:02:10;;;;;;;1.00;0.30;;;7.80;99.90;;;;;;5086593;28;20024;-96
2023/11/04 00:04:36;;;;;;;1.05;0.30;;;7.80;99.90;;;;;;5088858;28;20775;-95
2023/11/04 00:07:02;;;;;;;0.80;0.20;;;7.80;99.90;;;;;;5106187;28;20028;-95
2023/11/04 00:09:27;;;;;;;1.73;0.30;;;7.90;99.90;;;;;;5108183;28;20082;-95
2023/11/04 00:12:03;;;;;;;0.85;0.20;;;7.90;99.90;;;;;;5086384;28;20103;-94
2023/11/04 00:14:29;;;;;;;2.20;0.20;;;8.00;99.90;;;;;;5100423;28;20086;-95
2023/11/04 00:16:55;;;;;;;0.98;0.45;;;8.00;99.90;;;;;;5092133;28;20021;-96
2023/11/04 00:19:20;;;;;;;0.60;0.20;;;8.10;99.90;;;;;;5104226;28;20024;-94
2023/11/04 00:21:46;;;;;;;0.60;0.20;;;8.00;99.90;;;;;;5098945;28;20103;-94
2023/11/04 00:24:12;;;;;;;0.75;0.20;;;8.10;99.90;;;;;;5088639;28;20023;-94
2023/11/04 00:26:41;;;;;;;0.50;0.20;;;8.10;99.90;;;;;;5086760;28;20053;-96
2023/11/04 00:29:12;;;;;;;0.43;0.20;;;8.10;99.90;;;;;;5104510;28;20032;-95
2023/11/04 00:31:47;;;;;;;0.80;0.20;;;8.10;99.90;;;;;;5094784;28;20032;-96
2023/11/04 00:34:16;;;;;;;1.88;0.40;;;8.10;99.90;;;;;;5097588;28;20088;-96
2023/11/04 00:36:44;;;;;;;1.88;0.20;;;8.20;99.90;;;;;;5080724;28;20436;-95
2023/11/04 00:39:23;;;;;;;3.05;0.20;;;8.20;99.90;;;;;;5092766;28;20025;-95
2023/11/04 00:41:49;;;;;;;0.85;0.28;;;8.20;99.90;;;;;;5090551;28;20037;-96
2023/11/04 00:44:15;;;;;;;0.65;0.20;;;8.20;99.90;;;;;;5092109;28;20020;-93
2023/11/04 00:46:41;;;;;;;0.82;0.20;;;8.20;99.90;;;;;;5089102;28;20029;-94
2023/11/04 00:49:06;;;;;;;2.78;0.20;;;8.30;99.90;;;;;;5089513;28;20044;-94
2023/11/04 00:51:38;;;;;;;0.60;0.20;;;8.30;99.90;;;;;;5108802;28;20124;-95
2023/11/04 00:54:04;;;;;;;0.98;0.20;;;8.30;99.90;;;;;;5090036;28;20025;-96
2023/11/04 00:56:35;;;;;;;2.15;0.30;;;8.30;99.90;;;;;;5091279;28;20116;-96
2023/11/04 00:59:07;;;;;;;1.60;0.20;;;8.30;99.90;;;;;;5093652;28;20053;-95
2023/11/04 01:01:33;;;;;;;1.38;0.28;;;8.40;99.90;;;;;;5073248;28;20510;-95
2023/11/04 01:04:01;;;;;;;1.42;0.25;;;8.30;99.90;;;;;;5107169;28;20017;-96
2023/11/04 01:06:27;;;;;;;1.02;0.35;;;8.40;99.90;;;;;;5088266;28;20021;-95
2023/11/04 01:08:53;;;;;;;1.40;0.30;;;8.40;99.90;;;;;;5084510;28;20039;-95
2023/11/04 01:11:19;;;;;;;1.02;0.20;;;8.50;99.90;;;;;;5106929;28;20028;-95
2023/11/04 01:13:47;;;;;;;8.85;0.38;;;8.50;99.90;;;;;;5109094;28;20001;-96
2023/11/04 01:16:18;;;;;;;2.88;0.93;;;8.40;99.90;;;;;;5082612;28;20131;-95
2023/11/04 01:18:44;;;;;;;1.00;0.22;;;8.50;99.90;;;;;;5088168;28;20032;-96
2023/11/04 01:21:10;;;;;;;1.85;0.28;;;8.50;99.90;;;;;;5088448;28;20051;-95
2023/11/04 01:23:36;;;;;;;2.53;0.30;;;8.50;99.90;;;;;;5086404;28;20031;-95
2023/11/04 01:26:04;;;;;;;1.20;0.30;;;8.50;99.90;;;;;;5087940;28;20078;-96
2023/11/04 01:28:31;;;;;;;1.00;0.30;;;8.60;99.90;;;;;;5092134;28;20067;-96
2023/11/04 01:30:57;;;;;;;5.03;0.30;;;8.60;99.90;;;;;;5087886;28;20036;-96
2023/11/04 01:33:29;;;;;;;1.45;0.30;;;8.60;99.90;;;;;;5087016;28;20029;-96
2023/11/04 01:35:55;;;;;;;1.17;0.38;;;8.60;99.90;;;;;;5089918;28;20040;-96
2023/11/04 01:38:25;;;;;;;1.40;0.32;;;8.60;99.90;;;;;;5084883;28;20016;-95
2023/11/04 01:40:56;;;;;;;1.25;0.30;;;8.80;99.90;;;;;;5088828;28;20085;-95
2023/11/04 01:43:25;;;;;;;2.58;0.40;;;8.80;99.90;;;;;;5105184;28;20080;-96
2023/11/04 01:46:15;;;;;;;2.78;0.40;;;8.80;99.90;;;;;;5081560;28;20050;-96
2023/11/04 01:48:44;;;;;;;1.65;0.38;;;8.80;99.90;;;;;;5104491;28;20056;-95
2023/11/04 01:51:14;;;;;;;1.38;0.40;;;8.90;99.90;;;;;;5079909;28;20020;-96
2023/11/04 01:53:52;;;;;;;2.70;0.30;;;8.90;99.90;;;;;;5086502;28;20052;-96
2023/11/04 01:56:30;;;;;;;2.53;0.50;;;8.90;99.90;;;;;;5102113;28;20033;-96
2023/11/04 01:59:08;;;;;;;1.55;0.75;;;8.90;99.90;;;;;;5083093;28;20035;-95
2023/11/04 02:01:38;;;;;;;3.38;0.40;;;8.90;99.90;;;;;;5095127;28;20023;-93
2023/11/04 02:04:09;;;;;;;3.80;0.50;;;9.00;99.90;;;;;;5095666;28;20025;-95
2023/11/04 02:06:39;;;;;;;2.45;0.57;;;9.00;99.90;;;;;;5089004;28;20048;-95
2023/11/04 02:09:07;;;;;;;2.42;0.55;;;9.00;99.90;;;;;;5090930;28;20028;-95
2023/11/04 02:11:49;;;;;;;3.63;0.50;;;9.10;99.90;;;;;;5093125;28;20036;-96
2023/11/04 02:14:30;;;;;;;2.47;0.50;;;9.10;99.90;;;;;;5091526;28;20016;-96
2023/11/04 02:16:58;;;;;;;4.43;0.40;;;9.10;99.90;;;;;;5075635;28;20040;-94
2023/11/04 02:19:24;;;;;;;3.45;0.73;;;9.00;99.90;;;;;;5092054;28;20092;-95
2023/11/04 02:21:55;;;;;;;2.50;0.80;;;9.10;99.90;;;;;;5092729;28;20036;-96
2023/11/04 02:24:21;;;;;;;2.47;0.57;;;9.00;99.90;;;;;;5052141;28;20155;-96
2023/11/04 02:26:52;;;;;;;1.33;0.40;;;9.20;99.90;;;;;;5036684;28;20116;-95
2023/11/04 02:29:20;;;;;;;2.70;0.70;;;9.20;99.90;;;;;;5051124;28;20041;-95
2023/11/04 02:31:50;;;;;;;2.88;0.55;;;9.10;99.90;;;;;;5063304;28;20025;-96
2023/11/04 02:34:26;;;;;;;5.15;0.70;;;9.30;99.90;;;;;;5054478;28;20032;-96
2023/11/04 02:36:53;;;;;;;7.90;1.15;;;9.20;99.90;;;;;;5050963;28;20449;-95
2023/11/04 02:39:23;;;;;;;2.25;0.70;;;9.30;99.90;;;;;;5047607;28;20067;-96
2023/11/04 02:41:52;;;;;;;5.18;0.80;;;9.30;99.90;;;;;;5055026;28;20022;-96
2023/11/04 02:44:19;;;;;;;2.33;0.93;;;9.20;99.90;;;;;;5054634;28;20025;-96
2023/11/04 02:46:56;;;;;;;3.53;0.80;;;9.20;99.90;;;;;;5054819;28;20021;-95
2023/11/04 02:49:25;;;;;;;3.42;1.05;;;9.30;99.90;;;;;;5055778;28;20089;-96
2023/11/04 02:51:51;;;;;;;3.85;0.90;;;9.20;99.90;;;;;;5033580;28;20048;-96
2023/11/04 02:54:17;;;;;;;2.88;0.80;;;9.30;99.90;;;;;;5031803;28;20042;-95
2023/11/04 02:56:46;;;;;;;1.38;0.63;;;9.30;99.90;;;;;;5083814;28;20036;-96
2023/11/04 02:59:26;;;;;;;3.97;0.80;;;9.20;99.90;;;;;;5094347;28;20020;-95
2023/11/04 03:01:53;;;;;;;2.22;0.82;;;9.30;99.90;;;;;;5058905;28;20036;-95
2023/11/04 03:04:21;;;;;;;3.03;0.77;;;9.30;99.90;;;;;;5096065;28;20051;-95
2023/11/04 03:06:48;;;;;;;4.18;0.90;;;9.20;99.90;;;;;;5089182;28;20033;-95
2023/11/04 03:09:13;;;;;;;3.92;0.85;;;9.30;99.90;;;;;;5080086;28;20043;-94
2023/11/04 03:11:39;;;;;;;5.22;1.00;;;9.20;99.90;;;;;;5092073;28;20024;-94
2023/11/04 03:14:05;;;;;;;5.07;0.90;;;9.20;99.90;;;;;;5068207;28;20039;-94
2023/11/04 03:16:30;;;;;;;1.98;0.77;;;9.20;99.90;;;;;;5085194;28;20086;-95
2023/11/04 03:18:56;;;;;;;3.45;0.80;;;9.10;99.90;;;;;;5102161;28;20028;-95
2023/11/04 03:21:22;;;;;;;2.03;0.65;;;9.10;99.90;;;;;;5083272;28;20036;-96
2023/11/04 03:23:47;;;;;;;2.97;0.80;;;9.20;99.90;;;;;;5100161;28;20579;-94
2023/11/04 03:26:17;;;;;;;3.83;0.90;;;9.10;99.90;;;;;;5061238;28;20143;-96
2023/11/04 03:28:43;;;;;;;2.45;0.70;;;9.20;99.90;;;;;;5088299;28;20024;-96
2023/11/04 03:31:08;;;;;;;2.92;1.00;;;9.20;99.90;;;;;;5083564;28;20036;-95
2023/11/04 03:33:34;;;;;;;2.92;0.70;;;9.20;99.90;;;;;;5082890;28;20040;-94
2023/11/04 03:36:00;;;;;;;4.70;1.00;;;9.20;99.90;;;;;;5085947;28;20036;-95
2023/11/04 03:38:26;;;;;;;1.98;0.80;;;9.20;99.90;;;;;;5085304;28;20043;-96
2023/11/04 03:40:51;;;;;;;3.90;1.40;;;9.20;99.90;;;;;;5085138;28;20029;-95
2023/11/04 03:43:17;;;;;;;5.03;0.93;;;9.20;99.90;;;;;;5078410;28;20028;-95
2023/11/04 03:45:43;;;;;;;4.95;0.80;;;9.30;99.90;;;;;;5085367;28;20037;-95
2023/11/04 03:48:08;;;;;;;4.22;1.00;;;9.20;99.90;;;;;;5086609;28;20032;-95
2023/11/04 03:50:34;;;;;;;4.50;1.08;;;9.30;99.90;;;;;;5100915;28;20044;-93
2023/11/04 03:53:00;;;;;;;2.83;1.05;;;9.30;99.90;;;;;;5093049;28;20025;-95
2023/11/04 03:55:25;;;;;;;3.25;0.93;;;9.20;99.90;;;;;;5073538;28;20032;-96
2023/11/04 03:57:52;;;;;;;2.47;0.80;;;9.30;99.90;;;;;;5082173;28;20100;-94
2023/11/04 04:00:19;;;;;;;2.90;1.00;;;9.30;99.90;;;;;;5086667;28;20046;-94
2023/11/04 04:02:44;;;;;;;5.13;1.00;;;9.20;99.90;;;;;;5083215;28;20037;-95
2023/11/04 04:05:10;;;;;;;4.97;1.20;;;9.20;99.90;;;;;;5082149;28;20067;-96
2023/11/04 04:07:35;;;;;;;4.57;1.17;;;9.20;99.90;;;;;;5081637;28;20033;-94
2023/11/04 04:10:01;;;;;;;3.35;0.85;;;9.20;99.90;;;;;;5080103;28;20100;-95
2023/11/04 04:12:27;;;;;;;2.67;0.95;;;9.20;99.90;;;;;;5083173;28;20037;-94
2023/11/04 04:14:52;;;;;;;3.80;0.98;;;9.10;99.90;;;;;;5077246;28;20021;-93
2023/11/04 04:17:18;;;;;;;5.28;1.40;;;9.20;99.90;;;;;;5075847;28;20032;-93
2023/11/04 04:19:44;;;;;;;2.72;1.15;;;9.10;99.90;;;;;;5080620;28;20025;-93
2023/11/04 04:22:10;;;;;;;4.70;1.50;;;9.10;99.90;;;;;;5082539;28;20071;-95
2023/11/04 04:24:39;;;;;;;2.53;1.30;;;9.10;99.90;;;;;;5095623;28;20060;-95
2023/11/04 04:27:05;;;;;;;2.47;1.20;;;9.10;99.90;;;;;;5082917;28;20025;-96
2023/11/04 04:29:31;;;;;;;5.85;1.35;;;9.00;99.90;;;;;;5092715;28;20021;-93
2023/11/04 04:31:57;;;;;;;5.35;1.23;;;9.00;99.90;;;;;;5079610;28;20028;-94
2023/11/04 04:34:22;;;;;;;6.47;1.35;;;8.90;99.90;;;;;;5071518;28;20025;-94
2023/11/04 04:36:48;;;;;;;5.38;1.13;;;9.00;99.90;;;;;;5060318;28;20033;-94
2023/11/04 04:39:14;;;;;;;5.82;1.75;;;8.90;99.90;;;;;;5069025;28;20154;-94
2023/11/04 04:41:40;;;;;;;2.67;1.15;;;8.90;99.90;;;;;;5072424;28;20365;-94
2023/11/04 04:44:05;;;;;;;2.53;1.13;;;8.80;99.90;;;;;;5091396;28;20028;-95
2023/11/04 04:46:32;;;;;;;3.85;1.35;;;8.80;99.90;;;;;;5070432;28;20134;-93
2023/11/04 04:48:58;;;;;;;5.28;1.30;;;8.70;99.90;;;;;;5075722;28;20052;-93
2023/11/04 04:51:24;;;;;;;11.18;2.50;;;8.70;99.90;;;;;;5084729;28;20044;-94
2023/11/04 04:53:49;;;;;;;4.78;1.75;;;8.70;99.90;;;;;;5092788;28;20017;-94
2023/11/04 04:56:16;;;;;;;5.18;2.10;;;8.70;99.90;;;;;;5083444;28;20057;-94
2023/11/04 04:58:41;;;;;;;4.35;1.60;;;8.70;99.90;;;;;;5086023;28;20029;-94
2023/11/04 05:01:16;;;;;;;3.03;1.58;;;8.80;99.90;;;;;;5066494;28;20506;-95
2023/11/04 05:03:41;;;;;;;3.85;1.20;;;8.70;99.90;;;;;;5093719;28;20025;-93
2023/11/04 05:06:07;;;;;;;5.10;1.30;;;8.70;99.90;;;;;;5093852;28;20031;-93
2023/11/04 05:08:32;;;;;;;4.65;1.55;;;8.70;99.90;;;;;;5071954;28;20112;-93
2023/11/04 05:10:58;;;;;;;2.70;1.23;;;8.80;99.90;;;;;;5073055;28;20036;-94
2023/11/04 05:13:24;;;;;;;3.50;1.83;;;8.80;99.90;;;;;;5084581;28;20021;-95
2023/11/04 05:15:50;;;;;;;4.55;2.03;;;8.80;99.90;;;;;;5058853;28;20124;-94
2023/11/04 05:18:17;;;;;;;8.43;2.25;;;8.90;99.90;;;;;;5071447;28;20128;-93
2023/11/04 05:20:42;;;;;;;3.30;1.20;;;8.90;99.90;;;;;;5090195;28;20524;-93
2023/11/04 05:23:08;;;;;;;3.50;1.30;;;8.90;99.90;;;;;;5071872;28;20025;-94
2023/11/04 05:25:33;;;;;;;4.63;1.58;;;9.00;99.90;;;;;;5070635;28;20097;-95
2023/11/04 05:27:59;;;;;;;2.97;1.70;;;9.00;99.90;;;;;;5072230;28;20123;-95
2023/11/04 05:30:25;;;;;;;4.65;1.50;;;9.00;99.90;;;;;;5069323;28;20052;-93
2023/11/04 05:32:51;;;;;;;4.03;1.60;;;9.00;99.90;;;;;;5072883;28;20055;-95
2023/11/04 05:35:17;;;;;;;3.88;1.67;;;9.00;99.90;;;;;;5072624;28;20078;-95
2023/11/04 05:37:43;;;;;;;7.95;2.15;;;9.00;99.90;;;;;;5075591;28;20035;-95
2023/11/04 05:40:09;;;;;;;4.90;1.67;;;9.10;99.90;;;;;;5078386;28;20028;-96
2023/11/04 05:42:35;;;;;;;5.05;1.42;;;9.10;99.90;;;;;;5100605;28;20021;-95
2023/11/04 05:45:01;;;;;;;5.50;1.98;;;9.10;99.90;;;;;;5098531;28;20040;-94
2023/11/04 05:47:26;;;;;;;11.23;1.67;;;9.20;99.90;;;;;;5079943;28;20025;-95
2023/11/04 05:49:52;;;;;;;4.85;1.60;;;9.10;99.90;;;;;;5061997;28;20112;-93
2023/11/04 05:52:17;;;;;;;6.60;1.83;;;9.10;99.90;;;;;;5087864;28;20035;-93
2023/11/04 05:54:43;;;;;;;4.88;1.45;;;9.10;99.90;;;;;;5073282;28;20032;-94
2023/11/04 05:57:09;;;;;;;5.95;1.55;;;9.10;99.90;;;;;;5074143;28;20047;-95
2023/11/04 05:59:35;;;;;;;5.45;1.65;;;9.20;99.90;;;;;;5073939;28;20074;-94
2023/11/04 06:02:01;;;;;;;3.08;1.30;;;9.20;99.90;;;;;;5084815;28;20020;-96
2023/11/04 06:04:26;;;;;;;9.82;1.83;;;9.10;99.90;;;;;;5071766;28;20028;-94
2023/11/04 06:06:53;;;;;;;4.97;1.50;;;9.20;99.90;;;;;;5072912;28;20074;-95
2023/11/04 06:09:18;;;;;;;3.78;1.10;;;9.20;99.90;;;;;;5070466;28;20029;-96
2023/11/04 06:11:44;;;;;;;5.07;1.33;;;9.20;99.90;;;;;;5068948;28;20032;-95
2023/11/04 06:14:09;;;;;;;3.72;1.13;;;9.20;99.90;;;;;;5073896;28;20024;-94
2023/11/04 06:16:35;;;;;;;4.10;1.42;;;9.20;99.90;;;;;;5097471;28;20143;-94
2023/11/04 06:19:01;;;;;;;2.95;1.02;;;9.20;99.90;;;;;;5077182;28;20021;-94
2023/11/04 06:21:28;;;;;;;8.30;1.35;;;9.20;99.90;;;;;;5072061;28;20098;-94
2023/11/04 06:23:53;;;;;;;8.80;1.50;;;9.10;99.90;;;;;;5074260;28;20043;-95
2023/11/04 06:26:23;;;;;;;6.85;1.50;;;9.10;99.90;;;;;;5089253;28;20028;-93
2023/11/04 06:28:49;;;;;;;5.38;1.15;;;9.10;99.90;;;;;;5060467;28;20036;-94
2023/11/04 06:31:15;;;;;;;5.68;1.50;;;9.10;99.90;;;;;;5086146;28;20024;-94
2023/11/04 06:33:41;;;;;;;4.90;1.10;;;9.10;99.90;;;;;;5087230;28;20020;-94
2023/11/04 06:36:07;;;;;;;6.47;1.30;;;9.10;99.90;;;;;;5096136;28;20085;-95
2023/11/04 06:38:32;;;;;;;5.38;1.33;;;9.00;99.90;;;;;;5072716;28;20026;-94
2023/11/04 06:40:58;;;;;;;3.97;1.38;;;9.00;99.90;;;;;;5072639;28;20035;-94
2023/11/04 06:43:27;;;;;;;3.42;1.23;;;9.00;99.90;;;;;;5078920;28;20368;-94
2023/11/04 06:45:53;;;;;;;5.63;1.58;;;8.90;99.90;;;;;;5079342;28;20119;-95
2023/11/04 06:48:19;;;;;;;5.80;1.20;;;8.90;99.90;;;;;;5080104;28;20057;-93
2023/11/04 06:50:45;;;;;;;3.20;1.05;;;8.90;99.90;;;;;;5076788;28;20021;-94
2023/11/04 06:53:10;;;;;;;4.85;1.42;;;8.90;99.90;;;;;;5075941;28;20472;-93
2023/11/04 06:55:36;;;;;;;5.07;0.93;;;8.90;99.90;;;;;;5072850;28;20037;-94
2023/11/04 06:58:02;;;;;;;3.92;0.90;;;8.90;99.90;;;;;;5072601;28;20013;-95
2023/11/04 07:00:27;;;;;;;3.97;0.82;;;8.90;99.90;;;;;;5067500;28;20032;-94
2023/11/04 07:02:53;;;;;;;5.07;0.85;;;9.00;99.90;;;;;;5092762;28;20025;-95
2023/11/04 07:05:18;;;;;;;3.60;1.45;;;8.90;99.90;;;;;;5092078;28;20025;-95
2023/11/04 07:07:44;;;;;;;7.53;1.50;;;8.80;99.90;;;;;;5057466;28;20096;-93
2023/11/04 07:10:09;;;;;;;2.65;0.88;;;8.80;99.90;;;;;;5074892;28;20017;-94
2023/11/04 07:12:35;;;;;;;7.00;1.10;;;8.70;99.90;;;;;;5074665;28;20068;-94
2023/11/04 07:15:04;;;;;;;6.75;1.10;;;8.80;99.90;;;;;;5091849;28;20113;-93
2023/11/04 07:17:30;;;;;;;6.38;0.95;;;8.80;99.90;;;;;;5091085;28;20025;-93
2023/11/04 07:19:57;;;;;;;5.60;1.20;;;8.80;99.90;;;;;;5074975;28;20074;-95
2023/11/04 07:22:24;;;;;;;4.05;1.00;;;8.80;99.90;;;;;;5075215;28;20048;-93
2023/11/04 07:24:49;;;;;;;3.30;1.00;;;8.80;99.90;;;;;;5093844;28;20025;-93
2023/11/04 07:27:15;;;;;;;5.50;1.00;;;8.80;99.90;;;;;;5097252;28;20074;-92
2023/11/04 07:29:41;;;;;;;6.05;1.15;;;8.80;99.90;;;;;;5073805;28;20020;-93
2023/11/04 07:32:07;;;;;;;8.18;1.05;;;8.80;99.90;;;;;;5067567;28;20029;-94
2023/11/04 07:34:33;;;;;;;4.70;1.17;;;8.80;99.90;;;;;;5068507;28;20567;-96
2023/11/04 07:37:00;;;;;;;8.10;1.15;;;8.80;99.90;;;;;;5085486;28;20063;-95
2023/11/04 07:39:28;;;;;;;5.88;0.80;;;8.80;99.90;;;;;;5091501;28;20004;-96
2023/11/04 07:41:54;;;;;;;7.40;1.55;;;8.80;99.90;;;;;;5098178;28;20020;-93
2023/11/04 07:44:20;;;;;;;4.53;1.00;;;8.90;99.90;;;;;;5077969;28;20637;-94
2023/11/04 07:46:46;;;;;;;2.20;0.63;;;8.90;99.90;;;;;;5074856;28;20028;-91
2023/11/04 07:49:11;;;;;;;10.48;1.15;;;8.90;99.90;;;;;;5093255;28;20024;-93
2023/11/04 07:51:38;;;;;;;4.20;0.90;;;9.00;99.90;;;;;;5095189;28;20033;-95
2023/11/04 07:54:05;;;;;;;5.40;0.73;;;9.00;99.90;;;;;;5093449;28;20056;-94
2023/11/04 07:56:30;;;;;;;3.03;0.63;;;9.10;99.90;;;;;;5094296;28;20093;-94
2023/11/04 07:58:56;;;;;;;5.43;1.15;;;9.10;99.90;;;;;;5075404;28;20024;-94
2023/11/04 08:01:21;;;;;;;4.93;0.70;;;9.10;99.90;;;;;;5075584;28;20025;-94
2023/11/04 08:03:47;;;;;;;4.93;0.70;;;9.10;99.90;;;;;;5090182;28;20044;-94
2023/11/04 08:06:16;;;;;;;5.07;0.85;;;9.20;99.90;;;;;;5076280;28;20028;-95
2023/11/04 08:08:42;;;;;;;4.45;1.00;;;9.30;99.90;;;;;;5078457;28;20440;-95
2023/11/04 08:11:08;;;;;;;4.90;0.70;;;9.30;99.90;;;;;;5074203;28;20046;-96
2023/11/04 08:13:34;;;;;;;3.97;0.60;;;9.40;99.90;;;;;;5063561;28;20048;-95
2023/11/04 08:15:59;;;;;;;2.90;0.75;;;9.50;99.90;;;;;;5069334;28;20119;-95
2023/11/04 08:18:31;;;;;;;2.15;0.50;;;9.50;99.90;;;;;;5074218;28;20025;-93
2023/11/04 08:20:57;;;;;;;7.43;0.70;;;9.60;99.90;;;;;;5076208;28;20064;-95
2023/11/04 08:23:22;;;;;;;1.55;0.70;;;9.60;99.90;;;;;;5077738;28;20452;-96
2023/11/04 08:25:48;;;;;;;1.48;0.43;;;9.60;99.90;;;;;;5078125;28;20035;-88
2023/11/04 08:28:14;;;;;;;4.88;0.70;;;9.70;99.90;;;;;;5091436;28;20016;-91
2023/11/04 08:30:40;;;;;;;2.22;0.70;;;9.70;99.90;;;;;;5074107;28;20480;-89
2023/11/04 08:33:05;;;;;;;4.25;0.50;;;9.80;99.90;;;;;;5073004;28;20047;-91
2023/11/04 08:35:31;;;;;;;4.50;0.70;;;9.90;99.90;;;;;;5065123;28;20815;-89
2023/11/04 08:37:57;;;;;;;4.05;0.60;;;9.80;99.90;;;;;;5073352;28;20027;-89
2023/11/04 08:40:22;;;;;;;2.97;0.75;;;9.80;99.90;;;;;;5073117;28;20123;-90
2023/11/04 08:42:48;;;;;;;4.13;0.40;;;9.80;99.90;;;;;;5064403;28;20025;-94
2023/11/04 08:45:14;;;;;;;4.45;0.70;;;9.80;99.90;;;;;;5073404;28;20028;-95
2023/11/04 08:47:40;;;;;;;3.30;0.57;;;9.80;99.90;;;;;;5077312;28;20442;-95
2023/11/04 08:50:07;;;;;;;3.58;0.40;;;9.80;99.90;;;;;;5077229;28;20020;-95
2023/11/04 08:52:33;;;;;;;3.55;0.50;;;9.90;99.90;;;;;;5075168;28;20082;-96
2023/11/04 08:55:01;;;;;;;2.63;0.50;;;9.90;99.90;;;;;;5066819;28;20070;-96
2023/11/04 08:57:27;;;;;;;2.80;0.50;;;10.00;99.90;;;;;;5073651;28;20028;-95
2023/11/04 08:59:54;;;;;;;2.97;0.50;;;10.00;99.90;;;;;;5092424;28;20037;-96
2023/11/04 09:02:20;;;;;;;6.13;0.50;;;10.20;99.90;;;;;;5075218;28;20115;-95
2023/11/04 09:04:46;;;;;;;1.65;0.50;;;10.40;99.90;;;;;;5069517;28;20059;-95
2023/11/04 09:07:12;;;;;;;1.30;0.40;;;10.50;99.90;;;;;;5081102;28;20036;-95
2023/11/04 09:09:38;;;;;;;2.90;0.50;;;10.70;99.90;;;;;;5080976;28;20119;-93
2023/11/04 09:12:05;;;;;;;5.97;0.73;;;10.80;99.90;;;;;;5094504;28;20067;-94
2023/11/04 09:14:31;;;;;;;3.35;0.55;;;10.80;99.90;;;;;;5061918;28;20056;-95
2023/11/04 09:16:56;;;;;;;3.63;0.60;;;10.90;99.90;;;;;;5080754;28;20036;-91
2023/11/04 09:19:25;;;;;;;3.58;0.70;;;11.10;99.90;;;;;;5082669;28;20017;-96
2023/11/04 09:21:52;;;;;;;3.00;0.50;;;11.20;99.90;;;;;;5070109;28;20060;-96
2023/11/04 09:24:20;;;;;;;2.05;0.60;;;11.30;99.90;;;;;;5049419;28;20029;-95
2023/11/04 09:26:46;;;;;;;4.80;0.60;;;11.30;99.90;;;;;;5060559;28;20037;-95
2023/11/04 09:29:17;;;;;;;3.83;0.60;;;11.20;99.90;;;;;;5050092;28;20034;-95
2023/11/04 09:31:56;;;;;;;3.72;0.57;;;11.20;99.90;;;;;;5066084;28;20033;-96
2023/11/04 09:34:22;;;;;;;1.38;0.40;;;11.10;99.90;;;;;;5038566;28;20034;-95
2023/11/04 09:36:59;;;;;;;2.38;0.60;;;11.10;99.90;;;;;;5056281;28;20043;-96
2023/11/04 09:39:24;;;;;;;2.67;0.50;;;11.10;99.90;;;;;;5067812;23;20049;-71
2023/11/04 09:41:53;;;;;;;3.72;0.60;;;10.90;99.90;;;;;;5059049;28;20548;-73
2023/11/04 09:44:19;;;;;;;2.88;0.45;;;10.80;99.90;;;;;;5069749;28;20096;-73
2023/11/04 09:46:45;;;;;;;3.17;0.63;;;10.80;99.90;;;;;;5070470;28;20395;-73
2023/11/04 09:49:11;;;;;;;3.42;0.40;;;10.80;99.90;;;;;;5066103;28;20502;-73
2023/11/04 09:51:37;;;;;;;4.70;0.50;;;10.90;99.90;;;;;;5065291;28;20048;-73
2023/11/04 09:54:07;;;;;;;1.48;0.40;;;10.90;99.90;;;;;;5071567;28;20047;-73
2023/11/04 09:56:33;;;;;;;2.55;0.50;;;10.90;99.90;;;;;;5074134;28;20131;-73
2023/11/04 09:58:58;;;;;;;2.25;0.60;;;11.00;99.90;;;;;;5061405;28;20560;-73
2023/11/04 10:01:24;;;;;;;2.92;0.60;;;11.00;99.90;;;;;;5069761;28;20570;-73
2023/11/04 10:03:50;;;;;;;3.90;0.40;;;11.10;99.90;;;;;;5070772;28;20073;-73
2023/11/04 10:06:16;;;;;;;4.00;0.50;;;11.20;99.90;;;;;;5055807;28;20039;-73
2023/11/04 10:08:46;;;;;;;1.88;0.50;;;11.20;99.90;;;;;;5069188;28;20016;-73
2023/11/04 10:11:11;;;;;;;2.08;0.40;;;11.20;99.90;;;;;;5070695;28;20419;-73
2023/11/04 10:13:37;;;;;;;4.43;0.82;;;11.30;99.90;;;;;;5067060;28;20039;-73
2023/11/04 10:16:03;;;;;;;3.20;0.40;;;11.30;99.90;;;;;;5075661;28;20169;-73
2023/11/04 10:18:32;;;;;;;1.98;0.30;;;11.40;99.90;;;;;;5070750;28;20029;-73
2023/11/04 10:20:58;;;;;;;2.33;0.35;;;11.40;99.90;;;;;;5069806;28;20022;-73
2023/11/04 10:23:24;;;;;;;3.30;0.38;;;11.40;99.90;;;;;;5071422;28;20071;-73
2023/11/04 10:25:50;;;;;;;3.67;0.40;;;11.40;99.90;;;;;;5071690;28;20475;-73
2023/11/04 10:28:18;;;;;;;3.88;0.38;;;11.40;99.90;;;;;;5068187;28;20021;-73
2023/11/04 10:30:44;;;;;;;2.25;0.40;;;11.40;99.90;;;;;;5070878;28;20048;-73
2023/11/04 10:33:13;;;;;;;7.07;0.40;;;11.30;99.90;;;;;;5071303;28;20067;-73
2023/11/04 10:35:42;;;;;;;2.78;0.40;;;11.40;99.90;;;;;;5072005;28;20123;-73
2023/11/04 10:38:14;;;;;;;2.55;0.40;;;11.40;99.90;;;;;;5060463;28;20064;-73
2023/11/04 10:40:41;;;;;;;2.22;0.30;;;11.40;99.90;;;;;;5066811;28;20423;-73
2023/11/04 10:43:14;;;;;;;3.65;0.85;;;11.40;99.90;;;;;;5071131;28;20058;-73
2023/11/04 10:45:56;;;;;;;1.65;0.30;;;11.40;99.90;;;;;;5072866;28;20437;-73
2023/11/04 10:48:48;;;;;;;2.75;0.30;;;11.40;99.90;;;;;;5072080;28;20033;-73
2023/11/04 10:51:28;;;;;;;3.10;0.30;;;11.40;99.90;;;;;;5066696;28;20096;-73
2023/11/04 10:54:10;;;;;;;2.97;0.20;;;11.50;99.90;;;;;;5076572;28;20070;-73
2023/11/04 10:57:04;;;;;;;3.63;0.20;;;11.50;99.90;;;;;;5081108;28;20059;-73
2023/11/04 10:59:48;;;;;;;1.63;0.20;;;11.50;99.90;;;;;;5067175;28;20357;-73
2023/11/04 11:02:15;;;;;;;1.40;0.20;;;11.40;99.90;;;;;;5062459;28;20041;-73
2023/11/04 11:04:43;;;;;;;1.25;0.20;;;11.40;99.90;;;;;;5061213;28;20100;-73
2023/11/04 11:07:17;;;;;;;1.60;0.20;;;11.40;99.90;;;;;;5070550;28;20028;-73
2023/11/04 11:09:42;;;;;;;0.70;0.10;;;11.40;99.90;;;;;;5075935;28;20038;-73
2023/11/04 11:12:11;;;;;;;2.72;0.22;;;11.40;99.90;;;;;;5071655;28;20024;-73
2023/11/04 11:14:37;;;;;;;2.25;0.20;;;11.40;99.90;;;;;;5070745;28;20107;-73
2023/11/04 11:17:03;;;;;;;2.75;0.20;;;11.40;99.90;;;;;;5068315;28;20032;-75
2023/11/04 11:19:29;;;;;;;3.17;0.30;;;11.40;99.90;;;;;;5068923;28;20025;-73
2023/11/04 11:21:55;;;;;;;1.38;0.20;;;11.30;99.90;;;;;;5074611;28;20028;-73
2023/11/04 11:24:21;;;;;;;2.25;0.20;;;11.30;99.90;;;;;;5074509;28;20380;-73
2023/11/04 11:26:54;;;;;;;6.25;0.22;;;11.20;99.90;;;;;;5074730;28;20027;-73
2023/11/04 11:29:26;;;;;;;3.58;0.20;;;11.20;99.90;;;;;;5090427;28;20523;-73
2023/11/04 11:32:08;;;;;;;2.90;0.30;;;11.20;99.90;;;;;;5076049;28;20037;-73
2023/11/04 11:34:34;;;;;;;3.20;0.20;;;11.20;99.90;;;;;;5073153;28;20104;-74
2023/11/04 11:37:00;;;;;;;1.98;0.20;;;11.10;99.90;;;;;;5077554;28;20037;-73
2023/11/04 11:39:27;;;;;;;1.55;0.20;;;11.00;99.90;;;;;;5076001;28;20068;-74
2023/11/04 11:41:55;;;;;;;2.40;0.20;;;11.00;99.90;;;;;;5069809;28;20483;-73
2023/11/04 11:44:21;;;;;;;3.97;0.20;;;10.90;99.90;;;;;;5075912;28;20045;-73
2023/11/04 11:46:47;;;;;;;3.10;0.20;;;10.90;99.90;;;;;;5075913;28;20041;-73
2023/11/04 11:49:12;;;;;;;2.28;0.25;;;10.80;99.90;;;;;;5076150;28;20376;-73
2023/11/04 11:51:38;;;;;;;1.92;0.10;;;10.70;99.90;;;;;;5069941;28;20025;-73
2023/11/04 11:54:04;;;;;;;3.33;0.30;;;10.70;99.90;;;;;;5071165;28;20031;-73
2023/11/04 11:56:30;;;;;;;3.45;0.25;;;10.60;99.90;;;;;;5061855;28;20040;-74
2023/11/04 11:59:05;;;;;;;3.95;0.30;;;10.50;99.90;;;;;;5067603;28;20017;-72
2023/11/04 12:01:31;;;;;;;3.60;0.20;;;10.40;99.90;;;;;;5068136;28;20139;-74
2023/11/04 12:04:00;;;;;;;1.58;0.20;;;10.40;99.90;;;;;;5069288;28;20532;-73
2023/11/04 12:06:31;;;;;;;1.77;0.40;;;10.40;99.90;;;;;;5064760;28;20078;-74
2023/11/04 12:08:57;;;;;;;2.67;0.20;;;10.40;99.90;;;;;;5069427;28;20025;-73
2023/11/04 12:11:28;;;;;;;1.42;0.10;;;10.50;99.90;;;;;;5068758;28;20452;-72
2023/11/04 12:13:54;;;;;;;1.48;0.20;;;10.50;99.90;;;;;;5073436;28;20395;-74
2023/11/04 12:16:23;;;;;;;1.98;0.30;;;10.50;99.90;;;;;;5073876;28;20056;-74
2023/11/04 12:18:49;;;;;;;3.00;0.20;;;10.50;99.90;;;;;;5065392;28;20479;-73
2023/11/04 12:21:15;;;;;;;3.55;0.20;;;10.50;99.90;;;;;;5073140;28;20031;-73
2023/11/04 12:23:50;;;;;;;1.48;0.20;;;10.40;99.90;;;;;;5072786;28;20074;-74
2023/11/04 12:26:34;;;;;;;1.10;0.15;;;10.30;99.90;;;;;;5071319;28;20029;-73
2023/11/04 12:29:01;;;;;;;3.10;0.20;;;10.30;99.90;;;;;;5070732;28;20105;-73
2023/11/04 12:31:28;;;;;;;1.92;0.30;;;10.20;99.90;;;;;;5077614;28;20127;-73
2023/11/04 12:33:54;;;;;;;3.50;0.20;;;10.10;99.90;;;;;;5072903;28;20116;-73
2023/11/04 12:36:19;;;;;;;3.13;0.20;;;10.10;99.90;;;;;;5072856;28;20489;-73
2023/11/04 12:38:46;;;;;;;2.45;0.22;;;10.10;99.90;;;;;;5068962;28;20401;-73
2023/11/04 12:41:19;;;;;;;4.00;0.20;;;10.00;99.90;;;;;;5069955;28;20526;-73
2023/11/04 12:43:49;;;;;;;2.20;0.30;;;10.00;99.90;;;;;;5071245;28;20039;-72
2023/11/04 12:46:14;;;;;;;3.25;0.30;;;9.90;99.90;;;;;;5072873;28;20503;-73
2023/11/04 12:48:40;;;;;;;3.38;0.47;;;9.90;99.90;;;;;;5071705;28;20032;-73
2023/11/04 12:51:09;;;;;;;4.30;0.40;;;9.80;99.90;;;;;;5073105;28;20362;-74
2023/11/04 12:53:36;;;;;;;4.25;0.35;;;9.80;99.90;;;;;;5068598;28;20139;-73
2023/11/04 12:56:06;;;;;;;2.08;0.30;;;9.80;99.90;;;;;;5072429;28;20135;-73